Marlboro, Vermont
Current Conditions -  °F | °C
As of 7:15 AM on Monday 26 Jan 2015 (Local Time) from KEEN Reporting Station
Clear Clear  
Wind Chill: -7°   Ceiling: Unl
Heat Index:   Visibility: 10mi
Dew Point: -2°   Wind: 9mph
Humidity: 67%   Direction: 360°N
Pressure: 30.1"   Gusts: NA
Location:  42.86°N, 72.73°W
Report Text: KEEN 261215Z AUTO 36008KT 10SM CLR M14/M19 A3010 RMK AO1
Loading
Personal Weather Stations






























Interactive Weather Map New forecast layout! Learn more

10-Day Weather Forecast

Advertisements
Track Severe Weather on mobile